NOAA Web Site Link Tides and Currents Home Page Transparent placeholder image

PORTS® Data Listing: 8519483 Bergen Point West Reach, NY

CO-OPS RAW PORTS DATA

************************      PRELIMINARY DATA      ************************** 

     THIS RAW DATA HAS NOT BEEN SUBJECT TO THE NATIONAL OCEAN SERVICE'S        
     QUALITY CONTROL OR QUALITY ASSURANCE PROCEDURES AND DOES NOT MEET         
     THE CRITERIA AND STANDARDS OF OFFICIAL NATIONAL OCEAN SERVICE             
     DATA.  IT IS RELEASED FOR LIMITED PUBLIC USE AS PRELIMINARY DATA TO       
     BE USED ONLY WITH APPROPRIATE CAUTION.                                    

************************      PRELIMINARY DATA      ************************** 


       CD   -   Calendar date
       T    -   Time
       TZ   -   Timezone
       PW   -   Predicted water level (feet above MLLW)
       OW   -   Observed water level (feet above MLLW)
       WS   -   Wind speed (knots)
       WD   -   Wind direction (degrees true)
       WG   -   Wind gust (knots)
       AT   -   Air temperature (degrees farenheit)
       WT   -   Water temperature (degrees farenheit)
       AP   -   Air pressure (millibars)
       SA   -   Salinty (PSU - Practical Salinity Units)
       SG   -   Specific gravity
       RH   -   Relative humidity
       AG   -   Air gap (feet)
       VI   -   Visibility (nautical miles)

       ** NOTE **
       A variable that has its data fields filled with "9"s, indicates that
       data was not collected for that sample period.
       **********


STATION NAME: Bergen Point West Reach (8519483)
****************************************************************************************************
    CD       T    TZ    PW     OW    WS   WD   WG    AT    WT    AP    SA    SG     RH    AG   VI
****************************************************************************************************
2019/06/17 22:54 EDT    5.28   5.66 -999 -999 -999  70.7  67.1 1015.5 -9.9 -9.999 -99.9 -99.99 -9.99
2019/06/17 23:00 EDT    5.18   5.55 -999 -999 -999  70.7  67.3 1015.7 -9.9 -9.999 -99.9 -99.99 -9.99
2019/06/17 23:06 EDT    5.06   5.42 -999 -999 -999  70.5  67.5 1015.8 -9.9 -9.999 -99.9 -99.99 -9.99
2019/06/17 23:12 EDT    4.95   5.31 -999 -999 -999  70.3  67.5 1015.9 -9.9 -9.999 -99.9 -99.99 -9.99
2019/06/17 23:18 EDT    4.82   5.19 -999 -999 -999  70.2  67.5 1015.9 -9.9 -9.999 -99.9 -99.99 -9.99
2019/06/17 23:24 EDT    4.70   5.07 -999 -999 -999  70.2  67.5 1015.8 -9.9 -9.999 -99.9 -99.99 -9.99
2019/06/17 23:30 EDT    4.57   4.95 -999 -999 -999  70.2  67.5 1015.7 -9.9 -9.999 -99.9 -99.99 -9.99
2019/06/17 23:36 EDT    4.44   4.82 -999 -999 -999  70.3  67.5 1015.7 -9.9 -9.999 -99.9 -99.99 -9.99
2019/06/17 23:42 EDT    4.31   4.69 -999 -999 -999  70.3  67.5 1015.6 -9.9 -9.999 -99.9 -99.99 -9.99
2019/06/17 23:48 EDT    4.18   4.56 -999 -999 -999  70.2  67.5 1015.5 -9.9 -9.999 -99.9 -99.99 -9.99
2019/06/17 23:54 EDT    4.05   4.43 -999 -999 -999  70.2  67.5 1015.5 -9.9 -9.999 -99.9 -99.99 -9.99
2019/06/18 00:00 EDT    3.91   4.30 -999 -999 -999  70.2  67.5 1015.5 -9.9 -9.999 -99.9 -99.99 -9.99
2019/06/18 00:06 EDT    3.78   4.15 -999 -999 -999  70.2  67.5 1015.4 -9.9 -9.999 -99.9 -99.99 -9.99
2019/06/18 00:12 EDT    3.64   4.02 -999 -999 -999  70.0  67.5 1015.5 -9.9 -9.999 -99.9 -99.99 -9.99
2019/06/18 00:18 EDT    3.51   3.88 -999 -999 -999  70.0  67.5 1015.5 -9.9 -9.999 -99.9 -99.99 -9.99
2019/06/18 00:24 EDT    3.38   3.73 -999 -999 -999  69.8  67.5 1015.6 -9.9 -9.999 -99.9 -99.99 -9.99
2019/06/18 00:30 EDT    3.24   3.59 -999 -999 -999  70.0  67.5 1015.6 -9.9 -9.999 -99.9 -99.99 -9.99
2019/06/18 00:36 EDT    3.11   3.44 -999 -999 -999  70.2  67.5 1015.5 -9.9 -9.999 -99.9 -99.99 -9.99
2019/06/18 00:42 EDT    2.98   3.28 -999 -999 -999  70.2  67.5 1015.4 -9.9 -9.999 -99.9 -99.99 -9.99
2019/06/18 00:48 EDT    2.85   3.14 -999 -999 -999  70.0  67.5 1015.3 -9.9 -9.999 -99.9 -99.99 -9.99
2019/06/18 00:54 EDT    2.72   2.99 -999 -999 -999  70.0  67.5 1015.2 -9.9 -9.999 -99.9 -99.99 -9.99
2019/06/18 01:00 EDT    2.59   2.84 -999 -999 -999  69.8  67.6 1015.1 -9.9 -9.999 -99.9 -99.99 -9.99
2019/06/18 01:06 EDT    2.46   2.69 -999 -999 -999  69.8  67.6 1015.1 -9.9 -9.999 -99.9 -99.99 -9.99
2019/06/18 01:12 EDT    2.33   2.55 -999 -999 -999  69.6  67.6 1015.1 -9.9 -9.999 -99.9 -99.99 -9.99
2019/06/18 01:18 EDT    2.21   2.41 -999 -999 -999  69.6  67.6 1015.1 -9.9 -9.999 -99.9 -99.99 -9.99
2019/06/18 01:24 EDT    2.08   2.27 -999 -999 -999  69.4  67.6 1015.0 -9.9 -9.999 -99.9 -99.99 -9.99
2019/06/18 01:30 EDT    1.96   2.15 -999 -999 -999  69.3  67.6 1015.0 -9.9 -9.999 -99.9 -99.99 -9.99
2019/06/18 01:36 EDT    1.84   2.02 -999 -999 -999  69.3  67.6 1015.0 -9.9 -9.999 -99.9 -99.99 -9.99
2019/06/18 01:42 EDT    1.72   1.90 -999 -999 -999  69.1  67.6 1015.0 -9.9 -9.999 -99.9 -99.99 -9.99
2019/06/18 01:48 EDT    1.60   1.79 -999 -999 -999  69.3  67.6 1014.9 -9.9 -9.999 -99.9 -99.99 -9.99
2019/06/18 01:54 EDT    1.48   1.67 -999 -999 -999  69.4  67.6 1014.9 -9.9 -9.999 -99.9 -99.99 -9.99
2019/06/18 02:00 EDT    1.37   1.59 -999 -999 -999  69.4  67.8 1014.9 -9.9 -9.999 -99.9 -99.99 -9.99
2019/06/18 02:06 EDT    1.25   1.49 -999 -999 -999  69.4  67.8 1014.9 -9.9 -9.999 -99.9 -99.99 -9.99
2019/06/18 02:12 EDT    1.14   1.40 -999 -999 -999  69.4  67.8 1014.8 -9.9 -9.999 -99.9 -99.99 -9.99
2019/06/18 02:18 EDT    1.03   1.32 -999 -999 -999  69.6  67.8 1014.7 -9.9 -9.999 -99.9 -99.99 -9.99
2019/06/18 02:24 EDT    0.92   1.22 -999 -999 -999  69.6  67.8 1014.6 -9.9 -9.999 -99.9 -99.99 -9.99
2019/06/18 02:30 EDT    0.81   1.14 -999 -999 -999  69.6  67.8 1014.5 -9.9 -9.999 -99.9 -99.99 -9.99
2019/06/18 02:36 EDT    0.71   1.06 -999 -999 -999  69.4  67.8 1014.4 -9.9 -9.999 -99.9 -99.99 -9.99
2019/06/18 02:42 EDT    0.61   0.98 -999 -999 -999  69.4  67.8 1014.4 -9.9 -9.999 -99.9 -99.99 -9.99
2019/06/18 02:48 EDT    0.51   0.91 -999 -999 -999  69.4  67.8 1014.3 -9.9 -9.999 -99.9 -99.99 -9.99
2019/06/18 02:54 EDT    0.42   0.83 -999 -999 -999  69.4  67.8 1014.2 -9.9 -9.999 -99.9 -99.99 -9.99
2019/06/18 03:00 EDT    0.33   0.76 -999 -999 -999  69.3  67.8 1014.2 -9.9 -9.999 -99.9 -99.99 -9.99
2019/06/18 03:06 EDT    0.25   0.68 -999 -999 -999  69.3  67.8 1014.1 -9.9 -9.999 -99.9 -99.99 -9.99
2019/06/18 03:12 EDT    0.18   0.60 -999 -999 -999  69.3  67.8 1014.0 -9.9 -9.999 -99.9 -99.99 -9.99
2019/06/18 03:18 EDT    0.10   0.55 -999 -999 -999  69.3  67.8 1014.0 -9.9 -9.999 -99.9 -99.99 -9.99
2019/06/18 03:24 EDT    0.04   0.50 -999 -999 -999  69.3  67.8 1014.1 -9.9 -9.999 -99.9 -99.99 -9.99
2019/06/18 03:30 EDT   -0.02   0.43 -999 -999 -999  69.3  67.8 1014.1 -9.9 -9.999 -99.9 -99.99 -9.99
2019/06/18 03:36 EDT   -0.07   0.39 -999 -999 -999  69.3  67.8 1014.0 -9.9 -9.999 -99.9 -99.99 -9.99
2019/06/18 03:42 EDT   -0.11   0.35 -999 -999 -999  69.3  67.8 1014.1 -9.9 -9.999 -99.9 -99.99 -9.99
2019/06/18 03:48 EDT   -0.14   0.33 -999 -999 -999  69.3  67.8 1013.9 -9.9 -9.999 -99.9 -99.99 -9.99
2019/06/18 03:54 EDT   -0.17   0.32 -999 -999 -999  69.3  67.8 1014.0 -9.9 -9.999 -99.9 -99.99 -9.99
2019/06/18 04:00 EDT   -0.18   0.30 -999 -999 -999  69.3  67.8 1014.0 -9.9 -9.999 -99.9 -99.99 -9.99
2019/06/18 04:06 EDT   -0.19   0.29 -999 -999 -999  69.3  67.8 1014.1 -9.9 -9.999 -99.9 -99.99 -9.99
2019/06/18 04:12 EDT   -0.19   0.30 -999 -999 -999  69.3  67.8 1014.2 -9.9 -9.999 -99.9 -99.99 -9.99
2019/06/18 04:18 EDT   -0.17   0.34 -999 -999 -999  69.3  67.8 1014.1 -9.9 -9.999 -99.9 -99.99 -9.99
2019/06/18 04:24 EDT   -0.15   0.35 -999 -999 -999  69.3  67.8 1014.0 -9.9 -9.999 -99.9 -99.99 -9.99
2019/06/18 04:30 EDT   -0.11   0.41 -999 -999 -999  69.3  67.8 1013.9 -9.9 -9.999 -99.9 -99.99 -9.99
2019/06/18 04:36 EDT   -0.07   0.50 -999 -999 -999  69.4  67.8 1014.0 -9.9 -9.999 -99.9 -99.99 -9.99
2019/06/18 04:42 EDT   -0.02   0.56 -999 -999 -999  69.3  67.8 1014.0 -9.9 -9.999 -99.9 -99.99 -9.99
2019/06/18 04:48 EDT    0.05   0.61 -999 -999 -999  69.4  67.8 1013.9 -9.9 -9.999 -99.9 -99.99 -9.99
2019/06/18 04:54 EDT    0.12   0.72 -999 -999 -999  69.4  67.8 1014.0 -9.9 -9.999 -99.9 -99.99 -9.99
2019/06/18 05:00 EDT    0.20   0.81 -999 -999 -999  69.3  67.8 1014.0 -9.9 -9.999 -99.9 -99.99 -9.99
2019/06/18 05:06 EDT    0.29   0.93 -999 -999 -999  69.3  67.8 1014.1 -9.9 -9.999 -99.9 -99.99 -9.99
2019/06/18 05:12 EDT    0.39   1.02 -999 -999 -999  69.3  67.8 1014.2 -9.9 -9.999 -99.9 -99.99 -9.99
2019/06/18 05:18 EDT    0.50   1.19 -999 -999 -999  69.4  67.8 1014.1 -9.9 -9.999 -99.9 -99.99 -9.99
2019/06/18 05:24 EDT    0.61   1.34 -999 -999 -999  69.4  67.8 1014.0 -9.9 -9.999 -99.9 -99.99 -9.99
2019/06/18 05:30 EDT    0.74   1.49 -999 -999 -999  69.4  67.8 1014.1 -9.9 -9.999 -99.9 -99.99 -9.99
2019/06/18 05:36 EDT    0.86   1.63 -999 -999 -999  69.3  67.8 1014.1 -9.9 -9.999 -99.9 -99.99 -9.99
2019/06/18 05:42 EDT    1.00   1.80 -999 -999 -999  69.1  67.8 1014.1 -9.9 -9.999 -99.9 -99.99 -9.99
2019/06/18 05:48 EDT    1.13   2.00 -999 -999 -999  69.3  67.8 1014.2 -9.9 -9.999 -99.9 -99.99 -9.99
2019/06/18 05:54 EDT    1.27   2.14 -999 -999 -999  69.1  67.8 1014.2 -9.9 -9.999 -99.9 -99.99 -9.99
2019/06/18 06:00 EDT    1.42   2.32 -999 -999 -999  69.3  67.8 1014.2 -9.9 -9.999 -99.9 -99.99 -9.99
2019/06/18 06:06 EDT    1.57   2.46 -999 -999 -999  69.3  67.8 1014.2 -9.9 -9.999 -99.9 -99.99 -9.99
2019/06/18 06:12 EDT    1.72   2.64 -999 -999 -999  69.3  67.8 1014.3 -9.9 -9.999 -99.9 -99.99 -9.99
2019/06/18 06:18 EDT    1.87   2.81 -999 -999 -999  69.3  67.6 1014.3 -9.9 -9.999 -99.9 -99.99 -9.99
2019/06/18 06:24 EDT    2.02   2.94 -999 -999 -999  69.4  67.6 1014.3 -9.9 -9.999 -99.9 -99.99 -9.99
2019/06/18 06:30 EDT    2.17   3.06 -999 -999 -999  69.4  67.6 1014.3 -9.9 -9.999 -99.9 -99.99 -9.99
2019/06/18 06:36 EDT    2.32   3.19 -999 -999 -999  69.4  67.6 1014.4 -9.9 -9.999 -99.9 -99.99 -9.99
2019/06/18 06:42 EDT    2.47   3.33 -999 -999 -999  69.3  67.6 1014.4 -9.9 -9.999 -99.9 -99.99 -9.99
2019/06/18 06:48 EDT    2.62   3.47 -999 -999 -999  69.3  67.6 1014.5 -9.9 -9.999 -99.9 -99.99 -9.99
2019/06/18 06:54 EDT    2.77   3.59 -999 -999 -999  69.1  67.6 1014.7 -9.9 -9.999 -99.9 -99.99 -9.99
2019/06/18 07:00 EDT    2.91   3.71 -999 -999 -999  69.1  67.6 1014.6 -9.9 -9.999 -99.9 -99.99 -9.99
2019/06/18 07:06 EDT    3.05   3.82 -999 -999 -999  68.9  67.6 1014.4 -9.9 -9.999 -99.9 -99.99 -9.99
2019/06/18 07:12 EDT    3.19   3.92 -999 -999 -999  68.7  67.5 1014.5 -9.9 -9.999 -99.9 -99.99 -9.99
2019/06/18 07:18 EDT    3.32   4.02 -999 -999 -999  68.5  67.5 1014.6 -9.9 -9.999 -99.9 -99.99 -9.99
2019/06/18 07:24 EDT    3.45   4.07 -999 -999 -999  68.7  67.5 1014.7 -9.9 -9.999 -99.9 -99.99 -9.99
2019/06/18 07:30 EDT    3.57   4.16 -999 -999 -999  68.7  67.5 1014.8 -9.9 -9.999 -99.9 -99.99 -9.99
2019/06/18 07:36 EDT    3.69   4.25 -999 -999 -999  68.9  67.5 1014.7 -9.9 -9.999 -99.9 -99.99 -9.99
2019/06/18 07:42 EDT    3.81   4.32 -999 -999 -999  68.9  67.5 1014.8 -9.9 -9.999 -99.9 -99.99 -9.99
2019/06/18 07:48 EDT    3.92   4.40 -999 -999 -999  69.1  67.5 1014.5 -9.9 -9.999 -99.9 -99.99 -9.99
2019/06/18 07:54 EDT    4.03   4.46 -999 -999 -999  69.3  67.5 1014.7 -9.9 -9.999 -99.9 -99.99 -9.99
2019/06/18 08:00 EDT    4.13   4.52 -999 -999 -999  69.3  67.5 1014.8 -9.9 -9.999 -99.9 -99.99 -9.99
2019/06/18 08:06 EDT    4.23   4.58 -999 -999 -999  69.4  67.5 1014.7 -9.9 -9.999 -99.9 -99.99 -9.99
2019/06/18 08:12 EDT    4.32   4.64 -999 -999 -999  69.4  67.5 1014.6 -9.9 -9.999 -99.9 -99.99 -9.99
2019/06/18 08:18 EDT    4.40   4.69 -999 -999 -999  69.4  67.5 1014.7 -9.9 -9.999 -99.9 -99.99 -9.99
2019/06/18 08:24 EDT    4.49   4.75 -999 -999 -999  69.6  67.3 1014.5 -9.9 -9.999 -99.9 -99.99 -9.99
2019/06/18 08:30 EDT    4.56   4.81 -999 -999 -999  70.0  67.3 1014.3 -9.9 -9.999 -99.9 -99.99 -9.99
2019/06/18 08:36 EDT    4.63   4.86 -999 -999 -999  70.3  67.3 1014.2 -9.9 -9.999 -99.9 -99.99 -9.99
2019/06/18 08:42 EDT    4.70   4.92 -999 -999 -999  70.7  67.3 1014.1 -9.9 -9.999 -99.9 -99.99 -9.99
2019/06/18 08:48 EDT    4.76   4.97 -999 -999 -999  70.7  67.3 1014.0 -9.9 -9.999 -99.9 -99.99 -9.99
2019/06/18 08:54 EDT    4.82   5.03 -999 -999 -999  70.9  67.3 1014.1 -9.9 -9.999 -99.9 -99.99 -9.99
2019/06/18 09:00 EDT    4.87   5.08 -999 -999 -999  71.2  67.3 1014.0 -9.9 -9.999 -99.9 -99.99 -9.99
2019/06/18 09:06 EDT    4.91   5.13 -999 -999 -999  71.1  67.3 1014.0 -9.9 -9.999 -99.9 -99.99 -9.99
2019/06/18 09:12 EDT    4.95   5.17 -999 -999 -999  71.4  67.3 1014.0 -9.9 -9.999 -99.9 -99.99 -9.99
2019/06/18 09:18 EDT    4.98   5.21 -999 -999 -999  72.0  67.3 1014.0 -9.9 -9.999 -99.9 -99.99 -9.99
2019/06/18 09:24 EDT    5.01   5.25 -999 -999 -999  71.8  67.3 1014.0 -9.9 -9.999 -99.9 -99.99 -9.99
2019/06/18 09:30 EDT    5.03   5.29 -999 -999 -999  71.6  67.3 1014.0 -9.9 -9.999 -99.9 -99.99 -9.99
2019/06/18 09:36 EDT    5.04   5.33 -999 -999 -999  72.1  67.3 1013.9 -9.9 -9.999 -99.9 -99.99 -9.99
2019/06/18 09:42 EDT    5.05   5.36 -999 -999 -999  72.0  67.3 1013.9 -9.9 -9.999 -99.9 -99.99 -9.99
2019/06/18 09:48 EDT    5.05   5.39 -999 -999 -999  72.3  67.3 1013.9 -9.9 -9.999 -99.9 -99.99 -9.99
2019/06/18 09:54 EDT    5.05   5.41 -999 -999 -999  72.3  67.3 1013.7 -9.9 -9.999 -99.9 -99.99 -9.99
2019/06/18 10:00 EDT    5.04   5.42 -999 -999 -999  72.3  67.3 1013.8 -9.9 -9.999 -99.9 -99.99 -9.99
2019/06/18 10:06 EDT    5.02   5.44 -999 -999 -999  72.3  67.3 1013.7 -9.9 -9.999 -99.9 -99.99 -9.99
2019/06/18 10:12 EDT    5.00   5.44 -999 -999 -999  72.5  67.5 1013.7 -9.9 -9.999 -99.9 -99.99 -9.99
2019/06/18 10:18 EDT    4.96   5.45 -999 -999 -999  72.7  67.5 1013.7 -9.9 -9.999 -99.9 -99.99 -9.99
2019/06/18 10:24 EDT    4.93   5.43 -999 -999 -999  72.5  67.5 1013.6 -9.9 -9.999 -99.9 -99.99 -9.99
2019/06/18 10:30 EDT    4.88   5.41 -999 -999 -999  73.0  67.3 1013.6 -9.9 -9.999 -99.9 -99.99 -9.99
2019/06/18 10:36 EDT    4.83   5.40 -999 -999 -999  73.2  67.3 1013.6 -9.9 -9.999 -99.9 -99.99 -9.99
2019/06/18 10:42 EDT    4.78   5.36 -999 -999 -999  73.2  67.3 1013.6 -9.9 -9.999 -99.9 -99.99 -9.99
2019/06/18 10:48 EDT    4.72   5.34 -999 -999 -999  74.5  67.3 1013.4 -9.9 -9.999 -99.9 -99.99 -9.99
2019/06/18 10:54 EDT    4.65   5.29 -999 -999 -999  73.2  67.5 1013.5 -9.9 -9.999 -99.9 -99.99 -9.99
2019/06/18 11:00 EDT    4.58   5.23 -999 -999 -999  73.9  67.5 1013.4 -9.9 -9.999 -99.9 -99.99 -9.99
2019/06/18 11:06 EDT    4.50   5.19 -999 -999 -999  74.1  67.5 1013.4 -9.9 -9.999 -99.9 -99.99 -9.99
2019/06/18 11:12 EDT    4.42   5.12 -999 -999 -999  74.3  67.6 1013.4 -9.9 -9.999 -99.9 -99.99 -9.99
2019/06/18 11:18 EDT    4.33   5.03 -999 -999 -999  74.8  67.5 1013.3 -9.9 -9.999 -99.9 -99.99 -9.99
2019/06/18 11:24 EDT    4.24   4.95 -999 -999 -999  75.2  67.5 1013.3 -9.9 -9.999 -99.9 -99.99 -9.99
2019/06/18 11:30 EDT    4.14   4.87 -999 -999 -999  75.6  67.5 1013.2 -9.9 -9.999 -99.9 -99.99 -9.99
2019/06/18 11:36 EDT    4.04   4.76 -999 -999 -999  75.6  67.5 1013.2 -9.9 -9.999 -99.9 -99.99 -9.99
2019/06/18 11:42 EDT    3.94   4.66 -999 -999 -999  75.2  67.5 1013.2 -9.9 -9.999 -99.9 -99.99 -9.99
2019/06/18 11:48 EDT    3.84   4.56 -999 -999 -999  74.8  67.5 1013.2 -9.9 -9.999 -99.9 -99.99 -9.99
2019/06/18 11:54 EDT    3.73   4.44 -999 -999 -999  74.8  67.5 1013.4 -9.9 -9.999 -99.9 -99.99 -9.99
2019/06/18 12:00 EDT    3.63   4.32 -999 -999 -999  74.3  67.6 1013.3 -9.9 -9.999 -99.9 -99.99 -9.99
2019/06/18 12:06 EDT    3.52   4.22 -999 -999 -999  73.9  67.8 1013.4 -9.9 -9.999 -99.9 -99.99 -9.99
2019/06/18 12:12 EDT    3.41   4.10 -999 -999 -999  73.9  68.0 1013.1 -9.9 -9.999 -99.9 -99.99 -9.99
2019/06/18 12:18 EDT    3.30   3.98 -999 -999 -999  73.8  68.0 1013.1 -9.9 -9.999 -99.9 -99.99 -9.99
2019/06/18 12:24 EDT    3.19   3.87 -999 -999 -999  73.9  68.0 1013.0 -9.9 -9.999 -99.9 -99.99 -9.99
2019/06/18 12:30 EDT    3.08   3.75 -999 -999 -999  73.9  68.0 1013.1 -9.9 -9.999 -99.9 -99.99 -9.99
2019/06/18 12:36 EDT    2.97   3.62 -999 -999 -999  73.6  68.0 1013.0 -9.9 -9.999 -99.9 -99.99 -9.99
2019/06/18 12:42 EDT    2.86   3.50 -999 -999 -999  73.4  68.0 1013.1 -9.9 -9.999 -99.9 -99.99 -9.99
2019/06/18 12:48 EDT    2.75   3.36 -999 -999 -999  72.1  68.0 1013.2 -9.9 -9.999 -99.9 -99.99 -9.99
2019/06/18 12:54 EDT    2.64   3.23 -999 -999 -999  72.5  68.0 1013.1 -9.9 -9.999 -99.9 -99.99 -9.99
2019/06/18 13:00 EDT    2.54   3.08 -999 -999 -999  72.1  68.0 1013.0 -9.9 -9.999 -99.9 -99.99 -9.99
2019/06/18 13:06 EDT    2.44   2.95 -999 -999 -999  72.7  68.0 1012.8 -9.9 -9.999 -99.9 -99.99 -9.99
2019/06/18 13:12 EDT    2.33   2.81 -999 -999 -999  72.7  68.0 1012.8 -9.9 -9.999 -99.9 -99.99 -9.99
2019/06/18 13:18 EDT    2.23   2.66 -999 -999 -999  72.3  68.0 1012.4 -9.9 -9.999 -99.9 -99.99 -9.99
2019/06/18 13:24 EDT    2.14   2.53 -999 -999 -999  71.8  68.2 1012.6 -9.9 -9.999 -99.9 -99.99 -9.99
2019/06/18 13:30 EDT    2.04   2.41 -999 -999 -999  71.4  68.2 1012.7 -9.9 -9.999 -99.9 -99.99 -9.99
2019/06/18 13:36 EDT    1.94   2.29 -999 -999 -999  71.4  68.2 1012.6 -9.9 -9.999 -99.9 -99.99 -9.99
2019/06/18 13:42 EDT    1.85   2.15 -999 -999 -999  71.4  68.4 1012.5 -9.9 -9.999 -99.9 -99.99 -9.99
2019/06/18 13:48 EDT    1.76   2.06 -999 -999 -999  70.9  68.4 1012.3 -9.9 -9.999 -99.9 -99.99 -9.99
2019/06/18 13:54 EDT    1.67   1.97 -999 -999 -999  70.9  68.4 1012.3 -9.9 -9.999 -99.9 -99.99 -9.99
2019/06/18 14:00 EDT    1.58   1.86 -999 -999 -999  70.7  68.4 1012.4 -9.9 -9.999 -99.9 -99.99 -9.99
2019/06/18 14:06 EDT    1.49   1.80 -999 -999 -999  70.5  68.4 1012.0 -9.9 -9.999 -99.9 -99.99 -9.99
2019/06/18 14:12 EDT    1.41   1.68 -999 -999 -999  70.9  68.4 1011.9 -9.9 -9.999 -99.9 -99.99 -9.99
2019/06/18 14:18 EDT    1.33   1.62 -999 -999 -999  70.7  68.4 1012.0 -9.9 -9.999 -99.9 -99.99 -9.99
2019/06/18 14:24 EDT    1.24   1.47 -999 -999 -999  70.5  68.4 1011.8 -9.9 -9.999 -99.9 -99.99 -9.99
2019/06/18 14:30 EDT    1.17   1.45 -999 -999 -999  70.3  68.4 1011.6 -9.9 -9.999 -99.9 -99.99 -9.99
2019/06/18 14:36 EDT    1.09   1.37 -999 -999 -999  70.5  68.4 1011.7 -9.9 -9.999 -99.9 -99.99 -9.99
2019/06/18 14:42 EDT    1.01   1.34 -999 -999 -999  70.3  68.4 1011.8 -9.9 -9.999 -99.9 -99.99 -9.99
2019/06/18 14:48 EDT    0.94   1.24 -999 -999 -999  70.3  68.4 1012.0 -9.9 -9.999 -99.9 -99.99 -9.99
2019/06/18 14:54 EDT    0.87   1.20 -999 -999 -999  70.2  68.4 1011.9 -9.9 -9.999 -99.9 -99.99 -9.99
2019/06/18 15:00 EDT    0.81   1.18 -999 -999 -999  70.0  68.4 1011.8 -9.9 -9.999 -99.9 -99.99 -9.99
2019/06/18 15:06 EDT    0.75   1.18 -999 -999 -999  70.3  68.4 1011.5 -9.9 -9.999 -99.9 -99.99 -9.99
2019/06/18 15:12 EDT    0.69   1.12 -999 -999 -999  70.5  68.4 1011.6 -9.9 -9.999 -99.9 -99.99 -9.99
2019/06/18 15:18 EDT    0.63   1.09 -999 -999 -999  71.2  68.4 1011.5 -9.9 -9.999 -99.9 -99.99 -9.99
2019/06/18 15:24 EDT    0.58   1.05 -999 -999 -999  71.6  68.4 1011.5 -9.9 -9.999 -99.9 -99.99 -9.99
2019/06/18 15:30 EDT    0.54   1.04 -999 -999 -999  72.5  68.2 1011.4 -9.9 -9.999 -99.9 -99.99 -9.99
2019/06/18 15:36 EDT    0.50   1.02 -999 -999 -999  71.8  68.2 1011.5 -9.9 -9.999 -99.9 -99.99 -9.99
2019/06/18 15:42 EDT    0.46   0.98 -999 -999 -999  71.6  68.2 1011.4 -9.9 -9.999 -99.9 -99.99 -9.99
2019/06/18 15:48 EDT    0.43   1.00 -999 -999 -999  71.4  68.2 1011.3 -9.9 -9.999 -99.9 -99.99 -9.99
2019/06/18 15:54 EDT    0.41   1.02 -999 -999 -999  71.4  68.2 1011.2 -9.9 -9.999 -99.9 -99.99 -9.99
2019/06/18 16:00 EDT    0.40   1.00 -999 -999 -999  71.6  68.2 1011.1 -9.9 -9.999 -99.9 -99.99 -9.99
2019/06/18 16:06 EDT    0.39   1.01 -999 -999 -999  71.2  68.4 1011.0 -9.9 -9.999 -99.9 -99.99 -9.99
2019/06/18 16:12 EDT    0.40   1.00 -999 -999 -999  71.1  68.4 1011.1 -9.9 -9.999 -99.9 -99.99 -9.99
2019/06/18 16:18 EDT    0.41   1.03 -999 -999 -999  70.5  68.4 1011.3 -9.9 -9.999 -99.9 -99.99 -9.99
2019/06/18 16:24 EDT    0.42   1.05 -999 -999 -999  70.7  68.4 1011.0 -9.9 -9.999 -99.9 -99.99 -9.99
2019/06/18 16:30 EDT    0.45   1.10 -999 -999 -999  70.3  68.4 1010.8 -9.9 -9.999 -99.9 -99.99 -9.99
2019/06/18 16:36 EDT    0.49 -99.99 -999 -999 -999 -99.9 -99.9 -999.9 -9.9 -9.999 -99.9 -99.99 -9.99
2019/06/18 16:42 EDT    0.53 -99.99 -999 -999 -999 -99.9 -99.9 -999.9 -9.9 -9.999 -99.9 -99.99 -9.99
2019/06/18 16:48 EDT    0.59 -99.99 -999 -999 -999 -99.9 -99.9 -999.9 -9.9 -9.999 -99.9 -99.99 -9.99
2019/06/18 16:54 EDT    0.65 -99.99 -999 -999 -999 -99.9 -99.9 -999.9 -9.9 -9.999 -99.9 -99.99 -9.99
2019/06/18 17:00 EDT    0.72 -99.99 -999 -999 -999 -99.9 -99.9 -999.9 -9.9 -9.999 -99.9 -99.99 -9.99
2019/06/18 17:06 EDT    0.81 -99.99 -999 -999 -999 -99.9 -99.9 -999.9 -9.9 -9.999 -99.9 -99.99 -9.99
2019/06/18 17:12 EDT    0.90 -99.99 -999 -999 -999 -99.9 -99.9 -999.9 -9.9 -9.999 -99.9 -99.99 -9.99
2019/06/18 17:18 EDT    1.00 -99.99 -999 -999 -999 -99.9 -99.9 -999.9 -9.9 -9.999 -99.9 -99.99 -9.99
2019/06/18 17:24 EDT    1.10 -99.99 -999 -999 -999 -99.9 -99.9 -999.9 -9.9 -9.999 -99.9 -99.99 -9.99
2019/06/18 17:30 EDT    1.22 -99.99 -999 -999 -999 -99.9 -99.9 -999.9 -9.9 -9.999 -99.9 -99.99 -9.99
2019/06/18 17:36 EDT    1.34 -99.99 -999 -999 -999 -99.9 -99.9 -999.9 -9.9 -9.999 -99.9 -99.99 -9.99
2019/06/18 17:42 EDT    1.47 -99.99 -999 -999 -999 -99.9 -99.9 -999.9 -9.9 -9.999 -99.9 -99.99 -9.99
2019/06/18 17:48 EDT    1.60 -99.99 -999 -999 -999 -99.9 -99.9 -999.9 -9.9 -9.999 -99.9 -99.99 -9.99
2019/06/18 17:54 EDT    1.74 -99.99 -999 -999 -999 -99.9 -99.9 -999.9 -9.9 -9.999 -99.9 -99.99 -9.99
2019/06/18 18:00 EDT    1.89 -99.99 -999 -999 -999 -99.9 -99.9 -999.9 -9.9 -9.999 -99.9 -99.99 -9.99
2019/06/18 18:06 EDT    2.04 -99.99 -999 -999 -999 -99.9 -99.9 -999.9 -9.9 -9.999 -99.9 -99.99 -9.99
2019/06/18 18:12 EDT    2.19 -99.99 -999 -999 -999 -99.9 -99.9 -999.9 -9.9 -9.999 -99.9 -99.99 -9.99
2019/06/18 18:18 EDT    2.35 -99.99 -999 -999 -999 -99.9 -99.9 -999.9 -9.9 -9.999 -99.9 -99.99 -9.99
2019/06/18 18:24 EDT    2.51 -99.99 -999 -999 -999 -99.9 -99.9 -999.9 -9.9 -9.999 -99.9 -99.99 -9.99
2019/06/18 18:30 EDT    2.67 -99.99 -999 -999 -999 -99.9 -99.9 -999.9 -9.9 -9.999 -99.9 -99.99 -9.99
2019/06/18 18:36 EDT    2.83 -99.99 -999 -999 -999 -99.9 -99.9 -999.9 -9.9 -9.999 -99.9 -99.99 -9.99
2019/06/18 18:42 EDT    2.98 -99.99 -999 -999 -999 -99.9 -99.9 -999.9 -9.9 -9.999 -99.9 -99.99 -9.99
2019/06/18 18:48 EDT    3.14 -99.99 -999 -999 -999 -99.9 -99.9 -999.9 -9.9 -9.999 -99.9 -99.99 -9.99
2019/06/18 18:54 EDT    3.30 -99.99 -999 -999 -999 -99.9 -99.9 -999.9 -9.9 -9.999 -99.9 -99.99 -9.99
2019/06/18 19:00 EDT    3.46 -99.99 -999 -999 -999 -99.9 -99.9 -999.9 -9.9 -9.999 -99.9 -99.99 -9.99
2019/06/18 19:06 EDT    3.61 -99.99 -999 -999 -999 -99.9 -99.9 -999.9 -9.9 -9.999 -99.9 -99.99 -9.99
2019/06/18 19:12 EDT    3.76 -99.99 -999 -999 -999 -99.9 -99.9 -999.9 -9.9 -9.999 -99.9 -99.99 -9.99
2019/06/18 19:18 EDT    3.91 -99.99 -999 -999 -999 -99.9 -99.9 -999.9 -9.9 -9.999 -99.9 -99.99 -9.99
2019/06/18 19:24 EDT    4.05 -99.99 -999 -999 -999 -99.9 -99.9 -999.9 -9.9 -9.999 -99.9 -99.99 -9.99
2019/06/18 19:30 EDT    4.19 -99.99 -999 -999 -999 -99.9 -99.9 -999.9 -9.9 -9.999 -99.9 -99.99 -9.99
2019/06/18 19:36 EDT    4.33 -99.99 -999 -999 -999 -99.9 -99.9 -999.9 -9.9 -9.999 -99.9 -99.99 -9.99
2019/06/18 19:42 EDT    4.46 -99.99 -999 -999 -999 -99.9 -99.9 -999.9 -9.9 -9.999 -99.9 -99.99 -9.99
2019/06/18 19:48 EDT    4.58 -99.99 -999 -999 -999 -99.9 -99.9 -999.9 -9.9 -9.999 -99.9 -99.99 -9.99
2019/06/18 19:54 EDT    4.70 -99.99 -999 -999 -999 -99.9 -99.9 -999.9 -9.9 -9.999 -99.9 -99.99 -9.99
2019/06/18 20:00 EDT    4.82 -99.99 -999 -999 -999 -99.9 -99.9 -999.9 -9.9 -9.999 -99.9 -99.99 -9.99
2019/06/18 20:06 EDT    4.93 -99.99 -999 -999 -999 -99.9 -99.9 -999.9 -9.9 -9.999 -99.9 -99.99 -9.99
2019/06/18 20:12 EDT    5.03 -99.99 -999 -999 -999 -99.9 -99.9 -999.9 -9.9 -9.999 -99.9 -99.99 -9.99
2019/06/18 20:18 EDT    5.13 -99.99 -999 -999 -999 -99.9 -99.9 -999.9 -9.9 -9.999 -99.9 -99.99 -9.99
2019/06/18 20:24 EDT    5.22 -99.99 -999 -999 -999 -99.9 -99.9 -999.9 -9.9 -9.999 -99.9 -99.99 -9.99
2019/06/18 20:30 EDT    5.31 -99.99 -999 -999 -999 -99.9 -99.9 -999.9 -9.9 -9.999 -99.9 -99.99 -9.99
2019/06/18 20:36 EDT    5.39 -99.99 -999 -999 -999 -99.9 -99.9 -999.9 -9.9 -9.999 -99.9 -99.99 -9.99
2019/06/18 20:42 EDT    5.47 -99.99 -999 -999 -999 -99.9 -99.9 -999.9 -9.9 -9.999 -99.9 -99.99 -9.99
2019/06/18 20:48 EDT    5.54 -99.99 -999 -999 -999 -99.9 -99.9 -999.9 -9.9 -9.999 -99.9 -99.99 -9.99
2019/06/18 20:54 EDT    5.61 -99.99 -999 -999 -999 -99.9 -99.9 -999.9 -9.9 -9.999 -99.9 -99.99 -9.99
2019/06/18 21:00 EDT    5.67 -99.99 -999 -999 -999 -99.9 -99.9 -999.9 -9.9 -9.999 -99.9 -99.99 -9.99
2019/06/18 21:06 EDT    5.72 -99.99 -999 -999 -999 -99.9 -99.9 -999.9 -9.9 -9.999 -99.9 -99.99 -9.99
2019/06/18 21:12 EDT    5.77 -99.99 -999 -999 -999 -99.9 -99.9 -999.9 -9.9 -9.999 -99.9 -99.99 -9.99
2019/06/18 21:18 EDT    5.82 -99.99 -999 -999 -999 -99.9 -99.9 -999.9 -9.9 -9.999 -99.9 -99.99 -9.99
2019/06/18 21:24 EDT    5.85 -99.99 -999 -999 -999 -99.9 -99.9 -999.9 -9.9 -9.999 -99.9 -99.99 -9.99
2019/06/18 21:30 EDT    5.89 -99.99 -999 -999 -999 -99.9 -99.9 -999.9 -9.9 -9.999 -99.9 -99.99 -9.99
2019/06/18 21:36 EDT    5.91 -99.99 -999 -999 -999 -99.9 -99.9 -999.9 -9.9 -9.999 -99.9 -99.99 -9.99
2019/06/18 21:42 EDT    5.94 -99.99 -999 -999 -999 -99.9 -99.9 -999.9 -9.9 -9.999 -99.9 -99.99 -9.99
2019/06/18 21:48 EDT    5.95 -99.99 -999 -999 -999 -99.9 -99.9 -999.9 -9.9 -9.999 -99.9 -99.99 -9.99
2019/06/18 21:54 EDT    5.96 -99.99 -999 -999 -999 -99.9 -99.9 -999.9 -9.9 -9.999 -99.9 -99.99 -9.99
2019/06/18 22:00 EDT    5.96 -99.99 -999 -999 -999 -99.9 -99.9 -999.9 -9.9 -9.999 -99.9 -99.99 -9.99
2019/06/18 22:06 EDT    5.96 -99.99 -999 -999 -999 -99.9 -99.9 -999.9 -9.9 -9.999 -99.9 -99.99 -9.99
2019/06/18 22:12 EDT    5.95 -99.99 -999 -999 -999 -99.9 -99.9 -999.9 -9.9 -9.999 -99.9 -99.99 -9.99
2019/06/18 22:18 EDT    5.94 -99.99 -999 -999 -999 -99.9 -99.9 -999.9 -9.9 -9.999 -99.9 -99.99 -9.99
2019/06/18 22:24 EDT    5.91 -99.99 -999 -999 -999 -99.9 -99.9 -999.9 -9.9 -9.999 -99.9 -99.99 -9.99
2019/06/18 22:30 EDT    5.88 -99.99 -999 -999 -999 -99.9 -99.9 -999.9 -9.9 -9.999 -99.9 -99.99 -9.99
2019/06/18 22:36 EDT    5.85 -99.99 -999 -999 -999 -99.9 -99.9 -999.9 -9.9 -9.999 -99.9 -99.99 -9.99
2019/06/18 22:42 EDT    5.81 -99.99 -999 -999 -999 -99.9 -99.9 -999.9 -9.9 -9.999 -99.9 -99.99 -9.99
2019/06/18 22:48 EDT    5.76 -99.99 -999 -999 -999 -99.9 -99.9 -999.9 -9.9 -9.999 -99.9 -99.99 -9.99
2019/06/18 22:54 EDT    5.71 -99.99 -999 -999 -999 -99.9 -99.9 -999.9 -9.9 -9.999 -99.9 -99.99 -9.99

Revised: 08/08/2018
NOAA / National Ocean Service
Web site owner: Center for Operational Oceanographic Products and Services